Time;durP1;ratioP1;P1;durP2;ratioP2;P2;SDS_P1;SDS_P2;PMS_P1;PMS_P2;Temp;Humidity;BMP_temperature;BMP_pressure;BME280_temperature;BME280_humidity;BME280_pressure;Samples;Min_cycle;Max_cycle;Signal;HPM_P1;HPM_P2
2021/05/13 00:01:22;;;;;;;5.35;4.70;;;;;;;16.06;70.04;95316.30;1754817;80;20922;-83
2021/05/13 00:03:51;;;;;;;6.85;5.45;;;;;;;16.11;69.76;95305.39;1735490;80;20978;-83
2021/05/13 00:06:17;;;;;;;5.85;5.22;;;;;;;16.16;69.95;95312.00;1753449;80;21022;-83
2021/05/13 00:08:43;;;;;;;5.87;5.35;;;;;;;16.20;69.85;95311.79;1741763;80;20951;-83
2021/05/13 00:11:10;;;;;;;8.08;5.47;;;;;;;16.23;69.95;95309.71;1746906;80;20970;-83
2021/05/13 00:13:37;;;;;;;6.17;5.53;;;;;;;16.18;70.21;95308.63;1754460;82;21104;-83
2021/05/13 00:16:03;;;;;;;5.95;4.90;;;;;;;16.14;70.17;95300.18;1737026;80;21128;-83
2021/05/13 00:18:29;;;;;;;6.80;4.83;;;;;;;16.13;70.11;95299.39;1724963;82;20976;-83
2021/05/13 00:20:55;;;;;;;6.22;5.33;;;;;;;16.14;70.17;95294.42;1725104;82;21286;-83
2021/05/13 00:23:21;;;;;;;6.80;5.65;;;;;;;16.16;70.22;95291.56;1727459;80;20970;-83
2021/05/13 00:25:49;;;;;;;6.80;6.20;;;;;;;16.11;70.20;95293.60;1728587;80;21028;-83
2021/05/13 00:28:15;;;;;;;7.95;6.87;;;;;;;16.06;70.14;95297.45;1753798;80;21002;-83
2021/05/13 00:30:41;;;;;;;6.67;6.08;;;;;;;16.03;70.31;95298.45;1733600;82;20926;-83
2021/05/13 00:33:07;;;;;;;8.13;5.75;;;;;;;16.01;70.13;95293.98;1752882;80;20950;-83
2021/05/13 00:35:33;;;;;;;6.33;5.72;;;;;;;16.07;70.22;95289.86;1738017;80;20957;-84
2021/05/13 00:37:58;;;;;;;6.15;5.55;;;;;;;16.08;69.91;95283.58;1725436;80;20973;-83
2021/05/13 00:40:24;;;;;;;6.47;5.85;;;;;;;16.10;69.81;95280.72;1737427;82;20949;-83
2021/05/13 00:42:50;;;;;;;6.05;5.40;;;;;;;16.05;69.66;95276.73;1752117;82;21022;-83
2021/05/13 00:45:17;;;;;;;6.50;5.87;;;;;;;16.02;69.68;95274.08;1732781;80;21131;-83
2021/05/13 00:48:32;;;;;;;6.62;5.92;;;;;;;15.99;69.54;95271.95;1742834;82;21331;-83
2021/05/13 00:50:15;;;;;;;5.92;5.42;;;;;;;15.99;69.44;95268.54;1707950;82;20986;-83
2021/05/13 00:52:40;;;;;;;6.28;4.78;;;;;;;16.01;69.44;95270.39;1724975;82;21326;-83
2021/05/13 00:55:09;;;;;;;6.03;4.67;;;;;;;16.04;69.40;95269.91;1726054;82;20971;-83
2021/05/13 00:57:35;;;;;;;6.17;5.58;;;;;;;16.09;69.43;95269.45;1750793;80;21045;-83
2021/05/13 01:00:07;;;;;;;8.95;6.45;;;;;;;16.14;69.35;95268.73;1752982;82;20934;-83
2021/05/13 01:02:28;;;;;;;6.70;5.37;;;;;;;16.17;69.12;95263.80;1725909;82;21268;-83
2021/05/13 01:04:54;;;;;;;7.03;6.30;;;;;;;16.19;69.13;95266.17;1735500;82;21006;-83
2021/05/13 01:07:20;;;;;;;7.05;6.45;;;;;;;16.19;69.03;95260.93;1736000;80;21030;-83
2021/05/13 01:09:46;;;;;;;7.42;6.72;;;;;;;16.16;68.97;95253.56;1724907;80;21049;-83
2021/05/13 01:12:20;;;;;;;7.17;6.47;;;;;;;16.13;69.00;95254.84;1733941;80;21005;-83
2021/05/13 01:14:45;;;;;;;8.50;7.17;;;;;;;16.11;68.94;95246.44;1752502;80;21046;-83
2021/05/13 01:19:44;;;;;;;7.40;6.80;;;;;;;16.15;68.72;95248.84;1698329;83;20993;-83
2021/05/13 01:22:12;;;;;;;9.00;7.72;;;;;;;16.16;68.68;95243.87;1751417;80;20947;-83
2021/05/13 01:24:38;;;;;;;10.40;7.45;;;;;;;16.16;68.65;95247.80;1754728;80;21014;-83
2021/05/13 01:27:05;;;;;;;7.90;6.90;;;;;;;16.16;68.76;95238.63;1752583;80;20930;-83
2021/05/13 01:29:30;;;;;;;9.00;7.92;;;;;;;16.15;68.83;95234.94;1752574;82;21326;-83
2021/05/13 01:31:56;;;;;;;8.45;7.65;;;;;;;16.09;68.69;95238.00;1736007;81;21057;-83
2021/05/13 01:34:22;;;;;;;7.65;6.95;;;;;;;16.05;68.78;95230.36;1750948;80;21030;-83
2021/05/13 01:36:48;;;;;;;8.73;7.92;;;;;;;16.05;68.84;95228.25;1754919;80;20981;-83
2021/05/13 01:39:14;;;;;;;7.62;6.85;;;;;;;16.07;68.90;95228.80;1752763;80;21304;-83
2021/05/13 01:41:41;;;;;;;10.85;8.35;;;;;;;16.09;68.84;95229.34;1725819;80;20955;-83
2021/05/13 01:44:07;;;;;;;9.88;8.88;;;;;;;16.10;68.70;95228.31;1744588;80;21315;-84
2021/05/13 01:46:34;;;;;;;10.35;8.58;;;;;;;16.08;68.64;95222.00;1753595;80;21014;-83
2021/05/13 01:49:00;;;;;;;10.98;8.95;;;;;;;16.09;68.79;95214.94;1740496;80;21072;-83
2021/05/13 01:51:25;;;;;;;9.85;8.38;;;;;;;16.10;68.76;95210.76;1726991;80;21026;-83
2021/05/13 01:53:51;;;;;;;11.83;9.30;;;;;;;16.07;68.86;95208.63;1747906;80;21077;-83
2021/05/13 01:56:17;;;;;;;9.00;8.10;;;;;;;16.04;68.67;95209.64;1725910;82;21042;-83
2021/05/13 01:58:43;;;;;;;9.80;8.85;;;;;;;16.07;68.72;95206.53;1727244;80;21033;-83
2021/05/13 02:01:10;;;;;;;10.72;9.60;;;;;;;16.08;68.55;95196.32;1751383;82;20966;-83
2021/05/13 02:03:37;;;;;;;11.38;10.13;;;;;;;16.10;68.76;95189.00;1751905;82;20970;-83
2021/05/13 02:06:04;;;;;;;10.98;9.80;;;;;;;16.07;68.60;95185.05;1749193;80;21010;-83
2021/05/13 02:08:31;;;;;;;10.20;9.15;;;;;;;16.08;68.59;95180.08;1741561;82;21052;-83
2021/05/13 02:10:57;;;;;;;10.68;9.53;;;;;;;16.07;68.89;95181.12;1727523;80;21006;-83
2021/05/13 02:13:23;;;;;;;13.60;12.20;;;;;;;16.01;69.20;95186.04;1725877;82;20982;-83
2021/05/13 02:15:48;;;;;;;14.15;12.73;;;;;;;15.86;69.21;95180.09;1731130;80;20974;-83
2021/05/13 02:18:14;;;;;;;14.40;12.47;;;;;;;15.84;69.52;95176.14;1753891;80;20927;-83
2021/05/13 02:20:40;;;;;;;17.48;14.90;;;;;;;15.86;69.54;95176.16;1733435;82;20946;-83
2021/05/13 02:23:05;;;;;;;15.15;13.45;;;;;;;15.87;69.68;95169.89;1754407;80;20974;-83
2021/05/13 02:25:32;;;;;;;14.28;12.78;;;;;;;15.84;69.66;95176.14;1749531;80;21336;-83
2021/05/13 02:27:59;;;;;;;14.38;12.98;;;;;;;15.83;69.88;95167.49;1734813;80;21341;-83
2021/05/13 02:30:25;;;;;;;18.20;14.25;;;;;;;15.84;69.86;95168.28;1735623;82;21053;-83
2021/05/13 02:32:51;;;;;;;19.00;17.00;;;;;;;15.85;69.97;95165.42;1751007;82;20958;-83
2021/05/13 02:35:16;;;;;;;21.23;18.73;;;;;;;15.82;69.90;95162.50;1741015;82;20962;-83
2021/05/13 02:37:43;;;;;;;22.37;19.05;;;;;;;15.79;70.09;95163.00;1747774;80;20971;-84
2021/05/13 02:40:10;;;;;;;23.05;19.75;;;;;;;15.74;70.15;95153.23;1754044;80;21248;-83
2021/05/13 02:42:35;;;;;;;23.42;20.72;;;;;;;15.73;70.18;95147.72;1736866;82;20950;-83
2021/05/13 02:45:03;;;;;;;22.00;19.70;;;;;;;15.77;70.60;95142.77;1744924;80;21015;-83
2021/05/13 02:47:29;;;;;;;19.82;17.75;;;;;;;15.78;70.47;95138.63;1729757;81;20971;-83
2021/05/13 02:49:54;;;;;;;19.05;16.80;;;;;;;15.80;70.50;95135.25;1728449;81;21379;-84
2021/05/13 02:52:20;;;;;;;19.05;17.17;;;;;;;15.83;70.51;95136.58;1719120;81;20958;-83
2021/05/13 02:54:46;;;;;;;17.02;15.25;;;;;;;15.82;70.61;95125.31;1739827;81;20994;-83
2021/05/13 02:57:12;;;;;;;16.40;14.80;;;;;;;15.81;70.58;95133.42;1740127;82;20990;-83
2021/05/13 02:59:55;;;;;;;16.65;15.08;;;;;;;15.78;70.64;95129.47;1719533;82;21070;-84
2021/05/13 03:02:15;;;;;;;17.40;15.60;;;;;;;15.76;70.98;95128.89;1720020;82;21273;-83
2021/05/13 03:04:41;;;;;;;18.02;15.68;;;;;;;15.70;70.72;95123.85;1711939;81;21081;-83
2021/05/13 03:07:07;;;;;;;17.80;15.65;;;;;;;15.70;70.90;95118.61;1712196;82;20971;-84
2021/05/13 03:09:38;;;;;;;18.73;16.57;;;;;;;15.69;71.06;95112.59;1711470;81;20983;-83
2021/05/13 03:12:04;;;;;;;22.58;17.70;;;;;;;15.68;71.13;95122.78;1736017;81;20935;-83
2021/05/13 03:14:29;;;;;;;20.17;18.12;;;;;;;15.68;71.20;95122.00;1739975;81;20972;-83
2021/05/13 03:16:55;;;;;;;20.40;18.20;;;;;;;15.65;71.24;95114.11;1721439;81;21010;-83
2021/05/13 03:19:28;;;;;;;20.30;18.15;;;;;;;15.64;71.25;95111.22;1711687;82;21267;-83
2021/05/13 03:21:52;;;;;;;21.02;18.82;;;;;;;15.65;71.41;95112.02;1693753;81;20983;-83
2021/05/13 03:27:27;;;;;;;21.95;18.80;;;;;;;15.60;71.49;95112.20;1694635;84;20965;-83
2021/05/13 03:29:39;;;;;;;23.30;20.17;;;;;;;15.60;71.75;95106.18;1700702;81;20963;-83
2021/05/13 03:32:05;;;;;;;22.85;19.87;;;;;;;15.55;71.78;95108.71;1731412;81;20967;-83
2021/05/13 03:34:31;;;;;;;24.12;19.62;;;;;;;15.52;71.70;95100.83;1718961;81;21014;-83
2021/05/13 03:36:57;;;;;;;23.57;19.48;;;;;;;15.54;71.81;95102.69;1740848;81;21006;-83
2021/05/13 03:39:23;;;;;;;24.18;19.75;;;;;;;15.54;71.93;95102.69;1737975;81;21315;-84
2021/05/13 03:41:49;;;;;;;24.32;20.15;;;;;;;15.55;71.97;95102.17;1740454;82;20959;-83
2021/05/13 03:44:14;;;;;;;21.73;19.48;;;;;;;15.51;71.89;95104.48;1725132;82;20975;-83
2021/05/13 03:46:40;;;;;;;23.50;20.10;;;;;;;15.52;71.81;95096.12;1747119;80;21347;-83
2021/05/13 03:49:06;;;;;;;26.75;21.37;;;;;;;15.55;71.82;95090.39;1742464;80;20989;-83
2021/05/13 03:51:32;;;;;;;28.38;22.32;;;;;;;15.59;71.86;95095.44;1725667;80;21017;-83
2021/05/13 03:53:57;;;;;;;31.50;23.02;;;;;;;15.53;71.97;95091.95;1744029;80;20989;-83
2021/05/13 03:56:23;;;;;;;26.77;22.13;;;;;;;15.50;72.15;95092.95;1744097;80;21244;-83
2021/05/13 03:58:56;;;;;;;24.95;21.95;;;;;;;15.46;72.13;95089.25;1725118;80;20950;-83
2021/05/13 04:03:55;;;;;;;26.77;22.07;;;;;;;15.48;72.20;95079.32;1753885;80;20974;-83
2021/05/13 04:06:20;;;;;;;26.30;22.52;;;;;;;15.54;72.05;95077.81;1733233;80;20997;-83
2021/05/13 04:08:50;;;;;;;28.25;23.52;;;;;;;15.59;72.11;95077.90;1749651;82;21157;-83
2021/05/13 04:11:16;;;;;;;27.48;22.30;;;;;;;15.60;72.16;95072.93;1700593;82;20949;-83
2021/05/13 04:13:43;;;;;;;25.43;20.23;;;;;;;15.59;72.20;95072.66;1725115;80;21029;-83
2021/05/13 04:16:10;;;;;;;24.47;20.02;;;;;;;15.57;72.14;95071.30;1753958;80;21109;-83
2021/05/13 04:18:35;;;;;;;22.25;19.45;;;;;;;15.61;72.26;95064.56;1730505;81;21017;-83
2021/05/13 04:21:01;;;;;;;26.80;20.52;;;;;;;15.58;72.20;95059.78;1739852;82;20954;-83
2021/05/13 04:23:27;;;;;;;27.82;21.10;;;;;;;15.52;72.24;95060.26;1740086;80;20974;-83
2021/05/13 04:25:53;;;;;;;23.57;21.12;;;;;;;15.47;72.29;95060.73;1728232;80;21032;-83
2021/05/13 04:28:19;;;;;;;27.60;21.40;;;;;;;15.43;72.44;95050.45;1738957;80;20958;-83
2021/05/13 04:30:44;;;;;;;24.52;20.85;;;;;;;15.43;72.53;95053.06;1753075;80;21260;-83
2021/05/13 04:33:12;;;;;;;23.00;18.62;;;;;;;15.43;72.78;95049.14;1754959;82;20974;-83
2021/05/13 04:35:39;;;;;;;23.40;19.42;;;;;;;15.39;72.76;95044.91;1735702;80;20980;-83
2021/05/13 04:38:05;;;;;;;24.27;19.90;;;;;;;15.35;72.98;95045.14;1752527;80;20994;-83
2021/05/13 04:40:31;;;;;;;25.60;19.75;;;;;;;15.34;73.12;95044.07;1753549;82;21228;-83
2021/05/13 04:42:57;;;;;;;27.22;21.42;;;;;;;15.31;73.13;95048.77;1753577;80;20990;-83
2021/05/13 04:45:23;;;;;;;26.77;20.50;;;;;;;15.29;73.38;95042.98;1744094;80;21058;-83
2021/05/13 04:48:10;;;;;;;27.45;20.00;;;;;;;15.24;74.10;95035.56;1711649;82;21287;-83
2021/05/13 04:50:19;;;;;;;24.65;19.52;;;;;;;15.15;73.79;95040.45;1728010;81;21295;-83
2021/05/13 04:52:45;;;;;;;25.75;20.85;;;;;;;15.18;73.67;95037.86;1723075;81;21022;-83
2021/05/13 04:55:11;;;;;;;25.43;21.27;;;;;;;15.27;73.81;95033.77;1740580;81;21050;-83
2021/05/13 04:57:37;;;;;;;29.02;22.93;;;;;;;15.34;73.81;95034.91;1692169;82;21343;-83
2021/05/13 05:00:09;;;;;;;30.27;22.95;;;;;;;15.37;73.83;95033.11;1725690;81;20955;-83
2021/05/13 05:02:34;;;;;;;27.20;22.60;;;;;;;15.32;73.73;95029.92;1739461;81;20951;-83
2021/05/13 05:05:00;;;;;;;30.95;23.55;;;;;;;15.29;73.83;95023.84;1719790;82;20958;-83
2021/05/13 05:07:26;;;;;;;30.35;23.90;;;;;;;15.22;73.80;95018.81;1722955;81;20959;-83
2021/05/13 05:09:52;;;;;;;38.25;29.45;;;;;;;15.18;73.90;95023.47;1698588;82;21030;-83
2021/05/13 05:12:18;;;;;;;36.60;29.42;;;;;;;15.17;74.06;95014.83;1711403;81;20995;-83
2021/05/13 05:14:43;;;;;;;30.45;25.32;;;;;;;15.15;74.07;95020.03;1711639;81;21264;-83
2021/05/13 05:17:10;;;;;;;30.85;26.20;;;;;;;15.16;74.23;95019.00;1724474;82;21042;-83
2021/05/13 05:19:36;;;;;;;30.82;25.17;;;;;;;15.18;74.12;95015.63;1691403;84;21256;-83
2021/05/13 05:22:04;;;;;;;33.13;24.70;;;;;;;15.23;74.29;95018.29;1712377;81;21244;-83
2021/05/13 05:24:29;;;;;;;30.25;24.15;;;;;;;15.19;74.31;95010.66;1738541;81;20978;-83
2021/05/13 05:26:55;;;;;;;31.15;23.60;;;;;;;15.23;74.51;95019.08;1724136;81;21352;-82
2021/05/13 05:29:21;;;;;;;31.48;24.12;;;;;;;15.22;74.33;95023.25;1735350;81;21023;-83
2021/05/13 05:31:46;;;;;;;31.20;25.65;;;;;;;15.24;74.46;95020.66;1728374;81;21014;-83
2021/05/13 05:34:12;;;;;;;33.50;25.82;;;;;;;15.28;74.52;95026.19;1731715;81;21002;-83
2021/05/13 05:36:38;;;;;;;37.80;25.60;;;;;;;15.33;74.45;95025.48;1718252;81;21059;-83
2021/05/13 05:39:05;;;;;;;31.80;24.80;;;;;;;15.35;74.28;95022.09;1739731;82;21027;-83
2021/05/13 05:41:30;;;;;;;32.05;24.43;;;;;;;15.37;74.54;95022.64;1736804;81;21022;-83
2021/05/13 05:43:58;;;;;;;37.23;27.67;;;;;;;15.33;74.42;95023.66;1720112;81;21019;-83
2021/05/13 05:46:24;;;;;;;33.55;25.48;;;;;;;15.27;74.34;95020.17;1730109;81;21037;-83
2021/05/13 05:48:50;;;;;;;31.52;26.62;;;;;;;15.21;74.61;95019.84;1726627;82;21002;-83
2021/05/13 05:51:16;;;;;;;34.70;24.82;;;;;;;15.13;74.76;95021.59;1738999;80;20966;-83
2021/05/13 05:53:42;;;;;;;33.98;25.32;;;;;;;15.09;74.81;95018.38;1708146;82;20934;-83
2021/05/13 05:56:08;;;;;;;31.05;24.52;;;;;;;15.08;74.83;95020.72;1746986;80;21327;-83
2021/05/13 05:58:33;;;;;;;33.23;26.48;;;;;;;15.12;75.10;95021.80;1726579;80;20961;-83
2021/05/13 06:00:59;;;;;;;33.75;26.37;;;;;;;15.10;75.09;95021.26;1725106;82;21036;-83
2021/05/13 06:03:25;;;;;;;34.80;25.23;;;;;;;15.08;75.32;95018.89;1752848;80;21334;-83
2021/05/13 06:05:52;;;;;;;34.38;26.77;;;;;;;15.09;75.47;95017.06;1728752;80;21023;-83
2021/05/13 06:08:17;;;;;;;36.40;27.00;;;;;;;15.09;75.51;95020.98;1725958;80;21009;-83
2021/05/13 06:10:43;;;;;;;33.58;26.10;;;;;;;15.07;75.54;95019.92;1725788;80;21022;-83
2021/05/13 06:13:09;;;;;;;38.88;27.93;;;;;;;15.07;75.57;95021.75;1734570;80;21043;-83
2021/05/13 06:15:36;;;;;;;77.62;61.10;;;;;;;15.08;75.75;95022.81;1752908;80;20946;-83
2021/05/13 06:18:03;;;;;;;58.08;47.40;;;;;;;15.13;75.86;95015.53;1729323;80;20955;-83
2021/05/13 06:20:30;;;;;;;37.08;30.92;;;;;;;15.13;75.98;95018.97;1746331;80;21354;-83
2021/05/13 06:22:56;;;;;;;34.40;27.93;;;;;;;15.19;75.80;95022.44;1741289;82;21014;-83
2021/05/13 06:25:23;;;;;;;32.03;24.82;;;;;;;15.22;75.78;95020.11;1732174;80;21262;-83
2021/05/13 06:27:49;;;;;;;37.83;29.42;;;;;;;15.26;75.67;95017.28;1754212;80;20982;-83
2021/05/13 06:30:16;;;;;;;43.63;33.63;;;;;;;15.28;75.69;95019.13;1754325;80;20962;-83
2021/05/13 06:32:43;;;;;;;29.42;23.87;;;;;;;15.28;75.74;95025.67;1746559;80;20993;-82
2021/05/13 06:35:09;;;;;;;30.68;23.95;;;;;;;15.30;75.88;95021.53;1741243;80;21271;-83
2021/05/13 06:37:35;;;;;;;28.98;22.87;;;;;;;15.29;75.96;95022.05;1753865;80;20923;-82
2021/05/13 06:40:01;;;;;;;26.60;21.23;;;;;;;15.30;75.81;95021.53;1721975;82;21302;-82
2021/05/13 06:42:26;;;;;;;28.42;22.87;;;;;;;15.33;75.83;95023.66;1730199;80;21011;-82
2021/05/13 06:44:52;;;;;;;25.52;21.70;;;;;;;15.34;75.85;95020.00;1750406;82;21307;-82
2021/05/13 06:47:18;;;;;;;27.67;22.35;;;;;;;15.31;75.84;95019.19;1743408;80;21398;-83
2021/05/13 06:49:44;;;;;;;34.35;30.72;;;;;;;15.21;76.02;95015.92;1744692;80;21026;-82
2021/05/13 06:52:10;;;;;;;27.82;22.42;;;;;;;15.21;76.29;95021.67;1746793;80;21239;-82
2021/05/13 06:54:36;;;;;;;29.12;23.65;;;;;;;15.22;76.26;95014.09;1725248;82;20946;-83
2021/05/13 06:57:02;;;;;;;27.93;23.32;;;;;;;15.25;76.09;95012.29;1725101;80;20966;-83
2021/05/13 06:59:27;;;;;;;29.65;26.45;;;;;;;15.27;76.08;95012.83;1728709;80;21281;-83
2021/05/13 07:01:56;;;;;;;23.45;20.75;;;;;;;15.29;76.12;95017.30;1745759;82;21002;-83
2021/05/13 07:04:22;;;;;;;24.02;20.50;;;;;;;15.27;76.28;95015.45;1725757;82;21041;-83
2021/05/13 07:06:48;;;;;;;24.02;20.97;;;;;;;15.21;76.37;95008.06;1731319;82;21045;-83
2021/05/13 07:09:14;;;;;;;24.50;20.02;;;;;;;15.22;76.27;95012.78;1748871;80;20982;-83
2021/05/13 07:11:40;;;;;;;23.60;20.32;;;;;;;15.21;76.39;95011.20;1726696;80;20991;-83
2021/05/13 07:14:06;;;;;;;25.05;20.45;;;;;;;15.18;76.39;95014.31;1743966;80;21267;-83
2021/05/13 07:16:33;;;;;;;26.50;22.02;;;;;;;15.16;76.43;95012.45;1729286;80;21076;-82
2021/05/13 07:19:02;;;;;;;24.57;20.17;;;;;;;15.12;76.64;95017.88;1728299;80;21062;-83
2021/05/13 07:21:28;;;;;;;23.10;19.25;;;;;;;15.14;76.93;95004.86;1725460;80;20938;-82
2021/05/13 07:23:54;;;;;;;20.57;18.35;;;;;;;15.15;76.86;95007.75;1748983;80;20946;-82
2021/05/13 07:26:20;;;;;;;22.02;18.02;;;;;;;15.18;76.95;95014.31;1753175;80;20961;-82
2021/05/13 07:28:45;;;;;;;22.22;18.35;;;;;;;15.19;76.73;95005.42;1728393;82;21373;-82
2021/05/13 07:31:11;;;;;;;21.95;18.05;;;;;;;15.19;76.84;95008.83;1730358;80;21002;-82
2021/05/13 07:33:37;;;;;;;21.27;17.42;;;;;;;15.21;76.70;95005.97;1754377;80;21033;-82
2021/05/13 07:36:04;;;;;;;21.20;17.85;;;;;;;15.22;76.72;95001.80;1754077;80;20982;-83
2021/05/13 07:38:29;;;;;;;23.27;18.67;;;;;;;15.21;76.56;95007.28;1726099;82;21275;-83
2021/05/13 07:40:55;;;;;;;21.73;18.25;;;;;;;15.23;76.72;94999.45;1725447;80;20930;-83
2021/05/13 07:43:21;;;;;;;22.13;17.17;;;;;;;15.20;76.63;95004.39;1747246;80;20947;-82
2021/05/13 07:45:49;;;;;;;24.20;18.50;;;;;;;15.19;76.60;95003.60;1726626;80;21267;-83
2021/05/13 07:48:15;;;;;;;21.50;19.20;;;;;;;15.20;76.48;95002.56;1741136;80;20931;-82
2021/05/13 07:50:41;;;;;;;21.55;18.20;;;;;;;15.25;76.82;95005.23;1752506;80;21267;-82
2021/05/13 07:53:07;;;;;;;23.02;17.67;;;;;;;15.25;76.85;94996.08;1733232;80;21026;-82
2021/05/13 07:55:34;;;;;;;17.60;15.50;;;;;;;15.26;76.77;94995.03;1728405;80;21022;-82
2021/05/13 07:57:59;;;;;;;19.60;16.02;;;;;;;15.29;76.66;94999.81;1726457;80;20969;-82
2021/05/13 08:00:25;;;;;;;19.35;16.87;;;;;;;15.30;76.65;94994.84;1734135;80;21049;-83
2021/05/13 08:02:51;;;;;;;21.25;17.90;;;;;;;15.34;76.66;94991.73;1755026;82;20970;-82
2021/05/13 08:05:17;;;;;;;24.45;18.27;;;;;;;15.37;76.85;94995.95;1727949;80;21009;-83
2021/05/13 08:07:43;;;;;;;21.10;17.52;;;;;;;15.37;76.85;94994.64;1725586;80;20942;-82
2021/05/13 08:10:10;;;;;;;17.65;15.72;;;;;;;15.38;76.78;94991.51;1725122;80;20990;-82
2021/05/13 08:12:36;;;;;;;23.62;18.82;;;;;;;15.41;76.67;94993.11;1695647;82;21248;-83
2021/05/13 08:15:08;;;;;;;22.40;16.95;;;;;;;15.42;76.62;94991.28;1698396;82;21002;-82
2021/05/13 08:17:34;;;;;;;26.45;18.52;;;;;;;15.41;76.48;94990.49;1737797;80;21017;-83
2021/05/13 08:19:59;;;;;;;21.52;15.80;;;;;;;15.46;76.59;94991.88;1724637;82;21002;-82
2021/05/13 08:22:25;;;;;;;19.52;15.38;;;;;;;15.51;76.82;94987.20;1725818;80;21061;-82
2021/05/13 08:24:51;;;;;;;18.80;15.38;;;;;;;15.51;76.83;94989.83;1725524;80;21029;-82
2021/05/13 08:27:16;;;;;;;18.98;15.13;;;;;;;15.51;76.81;94990.61;1727360;80;21059;-83
2021/05/13 08:29:42;;;;;;;21.23;15.83;;;;;;;15.61;76.86;94985.50;1725089;80;21017;-83
2021/05/13 08:32:08;;;;;;;21.23;17.05;;;;;;;15.65;76.68;94978.48;1739051;80;21036;-83
2021/05/13 08:34:34;;;;;;;21.70;16.73;;;;;;;15.64;76.39;94979.52;1754099;80;21006;-82
2021/05/13 08:36:59;;;;;;;21.07;16.37;;;;;;;15.62;76.55;94985.00;1689462;82;20985;-83
2021/05/13 08:39:25;;;;;;;20.00;15.88;;;;;;;15.61;76.62;94984.70;1740348;80;20962;-83
2021/05/13 08:41:51;;;;;;;17.82;15.65;;;;;;;15.62;76.66;94982.39;1703265;80;20974;-82
2021/05/13 08:44:18;;;;;;;23.25;19.35;;;;;;;15.60;76.87;94984.44;1725933;80;21041;-83
2021/05/13 08:46:44;;;;;;;19.62;15.58;;;;;;;15.64;76.99;94983.45;1725322;80;21096;-83
2021/05/13 08:49:10;;;;;;;20.62;18.02;;;;;;;15.68;76.92;94979.29;1726082;80;21489;-83
2021/05/13 08:51:37;;;;;;;21.93;16.60;;;;;;;15.69;77.01;94982.97;1725114;82;21022;-82
2021/05/13 08:54:03;;;;;;;22.87;17.15;;;;;;;15.68;77.02;94982.70;1699548;82;21331;-83
2021/05/13 08:56:30;;;;;;;21.33;17.23;;;;;;;15.65;76.85;94977.95;1727548;80;21057;-82
2021/05/13 08:59:03;;;;;;;20.43;16.25;;;;;;;15.66;76.90;94980.06;1739896;82;21046;-82
2021/05/13 09:01:24;;;;;;;23.07;17.92;;;;;;;15.69;77.11;94981.66;1728987;80;21076;-82
2021/05/13 09:03:53;;;;;;;23.77;18.00;;;;;;;15.71;76.92;94986.64;1734983;80;21021;-82
2021/05/13 09:06:29;;;;;;;23.80;17.75;;;;;;;15.73;76.93;94981.42;1753549;80;20974;-82
2021/05/13 09:08:57;;;;;;;21.87;17.32;;;;;;;15.78;77.00;94980.67;1745614;80;20923;-83
2021/05/13 09:11:23;;;;;;;22.27;17.25;;;;;;;15.83;76.79;94977.61;1706778;82;20947;-83
2021/05/13 09:14:01;;;;;;;21.07;17.85;;;;;;;15.87;76.64;94976.06;1739206;80;21291;-83
2021/05/13 09:16:35;;;;;;;23.98;17.62;;;;;;;15.95;76.82;94977.45;1725885;80;21282;-83
2021/05/13 09:19:29;;;;;;;20.35;16.70;;;;;;;16.00;76.46;94974.88;1726923;82;21283;-83
2021/05/13 09:22:07;;;;;;;18.82;16.07;;;;;;;16.06;76.47;94974.38;1663689;85;21061;-82
2021/05/13 09:24:50;;;;;;;23.27;17.15;;;;;;;16.09;76.11;94978.59;1637683;85;21102;-83
2021/05/13 09:27:31;;;;;;;21.05;17.48;;;;;;;16.18;76.37;94975.80;1652501;84;21387;-83
2021/05/13 09:30:25;;;;;;;24.15;18.92;;;;;;;16.21;76.56;94977.91;1734970;80;20950;-83
2021/05/13 09:32:55;;;;;;;24.18;18.87;;;;;;;16.28;76.47;94982.17;1731826;80;20982;-83
2021/05/13 09:35:23;;;;;;;22.80;19.07;;;;;;;16.23;75.99;94977.66;1725667;80;21320;-83
2021/05/13 09:37:53;;;;;;;26.52;18.82;;;;;;;16.21;76.32;94974.50;1725596;80;21013;-83
2021/05/13 09:40:42;;;;;;;21.02;17.48;;;;;;;16.20;76.00;94973.72;1727268;80;20938;-83
2021/05/13 09:43:19;;;;;;;24.57;18.80;;;;;;;16.21;75.67;94969.27;1742303;82;20982;-83
2021/05/13 09:45:52;;;;;;;23.47;18.60;;;;;;;16.29;75.93;94964.88;1732523;80;21275;-83
2021/05/13 09:48:40;;;;;;;22.27;18.77;;;;;;;16.40;75.87;94959.95;1751820;80;21026;-83
2021/05/13 09:51:28;;;;;;;23.45;17.82;;;;;;;16.49;76.33;94954.52;1752919;80;21017;-83
2021/05/13 09:54:17;;;;;;;19.42;16.20;;;;;;;16.48;75.55;94949.53;1752229;82;20943;-83
2021/05/13 09:56:54;;;;;;;20.27;16.93;;;;;;;16.48;75.38;94946.91;1725649;80;21271;-83
2021/05/13 09:59:29;;;;;;;18.85;16.50;;;;;;;16.56;75.61;94940.39;1725781;80;21260;-82
2021/05/13 10:02:02;;;;;;;22.55;18.20;;;;;;;16.64;75.73;94941.23;1724866;82;20985;-83
2021/05/13 10:04:28;;;;;;;22.35;17.77;;;;;;;16.67;75.17;94942.85;1724991;80;21279;-83
2021/05/13 10:06:54;;;;;;;20.05;16.95;;;;;;;16.67;74.92;94940.23;1728310;80;20922;-83
2021/05/13 10:09:21;;;;;;;20.17;17.20;;;;;;;16.65;74.68;94938.36;1752104;82;21058;-83
2021/05/13 10:11:54;;;;;;;23.47;19.65;;;;;;;16.66;74.83;94935.21;1753814;80;20950;-83
2021/05/13 10:14:24;;;;;;;24.85;20.25;;;;;;;16.59;74.38;94932.80;1753039;80;20950;-82
2021/05/13 10:16:54;;;;;;;27.52;20.92;;;;;;;16.58;74.80;94935.68;1728014;80;21002;-83
2021/05/13 10:19:35;;;;;;;24.32;20.23;;;;;;;16.54;74.94;94931.47;1726209;80;20942;-83
2021/05/13 10:22:01;;;;;;;23.83;18.03;;;;;;;16.51;74.82;94931.98;1745945;80;21236;-83
2021/05/13 10:24:28;;;;;;;23.95;18.23;;;;;;;16.51;74.79;94924.12;1725543;82;21010;-83
2021/05/13 10:26:54;;;;;;;20.52;17.25;;;;;;;16.57;74.80;94922.30;1726017;80;21360;-83
2021/05/13 10:29:26;;;;;;;21.27;17.82;;;;;;;16.65;74.98;94923.14;1726785;82;21271;-83
2021/05/13 10:32:17;;;;;;;22.00;18.17;;;;;;;16.67;74.94;94925.80;1736280;80;20970;-83
2021/05/13 10:34:53;;;;;;;19.95;17.05;;;;;;;16.68;74.98;94923.97;1753142;82;21040;-83
2021/05/13 10:37:36;;;;;;;20.02;16.73;;;;;;;16.74;74.20;94921.62;1751029;80;20958;-83
2021/05/13 10:42:59;;;;;;;21.20;17.45;;;;;;;16.85;74.28;94928.52;1739231;80;20974;-83
2021/05/13 10:45:36;;;;;;;17.17;15.38;;;;;;;16.86;74.56;94936.64;1752214;80;21332;-83
2021/05/13 10:48:26;;;;;;;20.35;16.97;;;;;;;16.78;74.21;94936.62;1725176;82;21090;-83
2021/05/13 10:51:03;;;;;;;19.80;15.58;;;;;;;16.71;74.19;94940.50;1726556;80;20934;-83
2021/05/13 10:53:42;;;;;;;18.87;16.65;;;;;;;16.67;74.30;94945.48;1725699;80;21014;-83
2021/05/13 10:56:24;;;;;;;20.62;16.55;;;;;;;16.68;74.15;94937.88;1749223;80;20991;-83
2021/05/13 10:59:10;;;;;;;19.92;16.35;;;;;;;16.75;74.94;94937.11;1713487;82;21009;-83
2021/05/13 11:01:49;;;;;;;18.25;16.12;;;;;;;16.76;75.10;94928.22;1726216;80;20918;-83
2021/05/13 11:04:29;;;;;;;21.35;16.27;;;;;;;16.83;74.96;94931.91;1725117;82;20966;-84
2021/05/13 11:06:57;;;;;;;19.67;16.42;;;;;;;16.94;74.83;94935.38;1731623;80;21010;-83
2021/05/13 11:09:46;;;;;;;21.20;17.75;;;;;;;17.08;74.95;94936.46;1740292;80;21283;-83
2021/05/13 11:12:20;;;;;;;18.95;16.95;;;;;;;17.26;74.46;94927.36;1726990;80;21117;-83
2021/05/13 11:20:29;;;;;;;27.70;18.52;;;;;;;17.45;73.04;94923.72;1726475;80;20992;-83
2021/05/13 11:23:21;;;;;;;21.65;17.37;;;;;;;17.42;73.42;94922.94;1698028;82;20938;-83
2021/05/13 11:25:56;;;;;;;;;;;;;;;17.56;73.99;94918.73;1731012;80;20974;-83
2021/05/13 11:28:41;;;;;;;21.57;17.73;;;;;;;17.66;73.55;94916.13;1725973;80;20379;-83
2021/05/13 11:31:13;;;;;;;21.42;17.50;;;;;;;17.69;72.94;94919.05;1727386;82;20967;-83
2021/05/13 11:33:58;;;;;;;17.80;16.00;;;;;;;17.76;73.28;94910.14;1744147;82;20990;-83
2021/05/13 11:36:31;;;;;;;23.25;18.52;;;;;;;17.77;72.66;94911.19;1727375;82;20945;-84
2021/05/13 11:39:11;;;;;;;21.80;18.02;;;;;;;17.77;72.65;94905.94;1741140;80;20997;-84
2021/05/13 11:41:36;;;;;;;22.02;17.55;;;;;;;17.89;72.58;94907.75;1727665;80;20972;-84